createdAt,value
2016-08-18T00:02:24.398Z,1005.87
2016-08-18T00:07:22.277Z,1005.80
2016-08-18T00:12:19.949Z,1005.67
2016-08-18T00:17:17.674Z,1005.67
2016-08-18T00:22:15.313Z,1005.67
2016-08-18T00:27:13.119Z,1005.66
2016-08-18T00:32:11.067Z,1005.62
2016-08-18T00:37:08.818Z,1005.52
2016-08-18T00:42:06.659Z,1005.55
2016-08-18T00:47:04.409Z,1005.50
2016-08-18T00:52:02.117Z,1005.38
2016-08-18T00:56:59.941Z,1005.47
2016-08-18T01:01:57.983Z,1005.42
2016-08-18T01:06:55.795Z,1005.41
2016-08-18T01:11:53.426Z,1005.32
2016-08-18T01:16:51.255Z,1005.22
2016-08-18T01:21:49.046Z,1005.19
2016-08-18T01:26:46.593Z,1005.15
2016-08-18T01:31:44.242Z,1005.11
2016-08-18T01:36:42.262Z,1005.10
2016-08-18T01:41:39.989Z,1005.06
2016-08-18T01:46:37.693Z,1005.05
2016-08-18T01:51:35.634Z,1005.05
2016-08-18T01:56:33.574Z,1005.09
2016-08-18T02:01:31.136Z,1005.01
2016-08-18T02:06:28.947Z,1004.91
2016-08-18T02:11:26.645Z,1004.93
2016-08-18T02:16:24.486Z,1004.91
2016-08-18T02:21:22.222Z,1004.88
2016-08-18T02:26:20.264Z,1004.82
2016-08-18T02:31:17.906Z,1004.81
2016-08-18T02:36:15.929Z,1004.73
2016-08-18T02:41:13.776Z,1004.76
2016-08-18T02:46:11.470Z,1004.76
2016-08-18T02:51:09.192Z,1004.73
2016-08-18T02:56:07.493Z,1004.74
2016-08-18T03:01:04.897Z,1004.74
2016-08-18T03:06:02.491Z,1004.71
2016-08-18T03:11:00.213Z,1004.75
2016-08-18T03:15:58.198Z,1004.68
2016-08-18T03:20:55.816Z,1004.67
2016-08-18T03:25:53.472Z,1004.58
2016-08-18T03:30:51.371Z,1004.56
2016-08-18T03:35:49.060Z,1004.47
2016-08-18T03:40:46.820Z,1004.45
2016-08-18T03:45:44.805Z,1004.41
2016-08-18T03:50:42.531Z,1004.32
2016-08-18T03:55:40.182Z,1004.38
2016-08-18T04:00:37.937Z,1004.36
2016-08-18T04:05:35.593Z,1004.38
2016-08-18T04:10:33.323Z,1004.43
2016-08-18T04:15:31.015Z,1004.43
2016-08-18T04:20:28.611Z,1004.45
2016-08-18T04:25:26.542Z,1004.36
2016-08-18T04:30:24.073Z,1004.34
2016-08-18T04:35:21.641Z,1004.32
2016-08-18T04:40:19.326Z,1004.25
2016-08-18T04:45:17.195Z,1004.37
2016-08-18T04:50:14.891Z,1004.29
2016-08-18T04:55:12.986Z,1004.38
2016-08-18T05:00:10.744Z,1004.35
2016-08-18T05:05:08.505Z,1004.40
2016-08-18T05:10:06.200Z,1004.37
2016-08-18T05:15:04.039Z,1004.44
2016-08-18T05:20:01.650Z,1004.35
2016-08-18T05:24:59.352Z,1004.37
2016-08-18T05:29:57.062Z,1004.29
2016-08-18T05:34:55.087Z,1004.27
2016-08-18T05:39:52.960Z,1004.23
2016-08-18T05:44:50.953Z,1004.22
2016-08-18T05:49:48.818Z,1004.23
2016-08-18T05:54:46.776Z,1004.25
2016-08-18T05:59:44.540Z,1004.32
2016-08-18T06:04:42.427Z,1004.30
2016-08-18T06:09:40.223Z,1004.36
2016-08-18T06:14:38.231Z,1004.34
2016-08-18T06:19:36.134Z,1004.28
2016-08-18T06:24:34.129Z,1004.34
2016-08-18T06:29:31.896Z,1004.28
2016-08-18T06:34:29.618Z,1004.39
2016-08-18T06:39:27.162Z,1004.40
2016-08-18T06:44:24.746Z,1004.39
2016-08-18T06:49:22.396Z,1004.43
2016-08-18T06:54:20.086Z,1004.34
2016-08-18T06:59:17.947Z,1004.39
2016-08-18T07:04:15.500Z,1004.35
2016-08-18T07:09:13.259Z,1004.40
2016-08-18T07:14:10.904Z,1004.30
2016-08-18T07:19:08.592Z,1004.37
2016-08-18T07:24:06.317Z,1004.40
2016-08-18T07:29:04.023Z,1004.40
2016-08-18T07:34:01.613Z,1004.35
2016-08-18T07:38:59.223Z,1004.36
2016-08-18T07:43:56.929Z,1004.29
2016-08-18T07:48:55.539Z,1004.27
2016-08-18T07:53:53.846Z,1004.22
2016-08-18T07:58:51.443Z,1004.26
2016-08-18T08:03:49.063Z,1004.38
2016-08-18T08:08:46.853Z,1004.40
2016-08-18T08:13:44.910Z,1004.34
2016-08-18T08:18:43.263Z,1004.37
2016-08-18T08:23:41.438Z,1004.36
2016-08-18T08:28:39.714Z,1004.42
2016-08-18T08:33:37.766Z,1004.35
2016-08-18T08:38:35.758Z,1004.38
2016-08-18T08:43:33.468Z,1004.37
2016-08-18T08:48:31.355Z,1004.34
2016-08-18T08:53:29.147Z,1004.31
2016-08-18T08:58:26.894Z,1004.33
2016-08-18T09:03:24.452Z,1004.27
2016-08-18T09:08:21.990Z,1004.25
2016-08-18T09:13:19.583Z,1004.30
2016-08-18T09:18:17.156Z,1004.21
2016-08-18T09:23:14.892Z,1004.17
2016-08-18T09:28:12.491Z,1004.19
2016-08-18T09:33:10.071Z,1004.16
2016-08-18T09:38:07.470Z,1004.17
2016-08-18T09:43:06.014Z,1004.08
2016-08-18T09:48:03.331Z,1004.06
2016-08-18T09:53:00.893Z,1004.06
2016-08-18T09:57:58.626Z,1004.07
2016-08-18T10:02:56.551Z,1004.02
2016-08-18T10:07:54.175Z,1003.98
2016-08-18T10:12:51.984Z,1003.92
2016-08-18T10:17:49.772Z,1003.89
2016-08-18T10:22:47.469Z,1003.92
2016-08-18T10:27:45.126Z,1003.84
2016-08-18T10:32:42.771Z,1003.75
2016-08-18T10:37:40.459Z,1003.82
2016-08-18T10:42:38.089Z,1003.77
2016-08-18T10:47:35.739Z,1003.82
2016-08-18T10:52:33.305Z,1003.78
2016-08-18T10:57:30.827Z,1003.86
2016-08-18T11:02:28.464Z,1003.80
2016-08-18T11:07:26.157Z,1003.75
2016-08-18T11:12:23.961Z,1003.85
2016-08-18T11:17:21.477Z,1003.80
2016-08-18T11:22:19.155Z,1003.74
2016-08-18T11:27:17.036Z,1003.64
2016-08-18T11:32:14.812Z,1003.64
2016-08-18T11:37:12.559Z,1003.68
2016-08-18T11:42:10.383Z,1003.68
2016-08-18T11:47:08.078Z,1003.59
2016-08-18T11:52:05.790Z,1003.49
2016-08-18T11:57:04.144Z,1003.50
2016-08-18T12:12:07.398Z,1003.46
2016-08-18T12:17:05.661Z,1003.40
2016-08-18T12:22:03.555Z,1003.32
2016-08-18T12:27:01.253Z,1003.36
2016-08-18T12:31:58.786Z,1003.36
2016-08-18T12:36:56.410Z,1003.26
2016-08-18T12:41:54.079Z,1003.35
2016-08-18T12:46:51.912Z,1003.24
2016-08-18T12:51:49.570Z,1003.19
2016-08-18T12:56:47.240Z,1003.19
2016-08-18T13:01:44.939Z,1003.28
2016-08-18T13:06:42.818Z,1003.26
2016-08-18T13:11:40.441Z,1003.23
2016-08-18T13:16:38.268Z,1003.15
2016-08-18T13:21:35.890Z,1003.06
2016-08-18T13:26:33.721Z,1003.05
2016-08-18T13:31:31.348Z,1002.92
2016-08-18T13:36:28.993Z,1003.03
2016-08-18T13:41:26.710Z,1002.96
2016-08-18T13:46:24.717Z,1002.92
2016-08-18T13:51:22.211Z,1002.83
2016-08-18T13:56:19.948Z,1002.79
2016-08-18T14:01:17.738Z,1002.86
2016-08-18T14:06:15.457Z,1002.76
2016-08-18T14:11:13.082Z,1002.69
2016-08-18T14:16:10.893Z,1002.80
2016-08-18T14:21:08.587Z,1002.83
2016-08-18T14:26:06.483Z,1002.82
2016-08-18T14:31:04.182Z,1002.81
2016-08-18T14:36:01.875Z,1002.76
2016-08-18T14:40:59.678Z,1002.68
2016-08-18T14:45:57.494Z,1002.70
2016-08-18T14:50:55.238Z,1002.71
2016-08-18T14:55:53.259Z,1002.76
2016-08-18T15:00:51.024Z,1002.62
2016-08-18T15:05:48.709Z,1002.68
2016-08-18T15:10:46.283Z,1002.66
2016-08-18T15:15:43.932Z,1002.69
2016-08-18T15:20:41.570Z,1002.73
2016-08-18T15:25:39.070Z,1002.64
2016-08-18T15:30:36.838Z,1002.67
2016-08-18T15:35:34.571Z,1002.67
2016-08-18T15:40:32.259Z,1002.61
2016-08-18T15:45:30.058Z,1002.59
2016-08-18T15:50:27.814Z,1002.61
2016-08-18T15:55:25.483Z,1002.68
2016-08-18T16:00:23.410Z,1002.61
2016-08-18T16:05:21.169Z,1002.54
2016-08-18T16:10:18.801Z,1002.58
2016-08-18T16:15:16.440Z,1002.56
2016-08-18T16:20:14.073Z,1002.59
2016-08-18T16:25:12.014Z,1002.70
2016-08-18T16:30:09.753Z,1002.62
2016-08-18T16:35:07.349Z,1002.67
2016-08-18T16:40:04.944Z,1002.74
2016-08-18T16:45:02.685Z,1002.79
2016-08-18T16:50:00.433Z,1002.78
2016-08-18T16:54:58.237Z,1002.76
2016-08-18T16:59:56.006Z,1002.75
2016-08-18T17:04:53.842Z,1002.86
2016-08-18T17:09:53.768Z,1002.84
2016-08-18T17:14:50.883Z,1002.84
2016-08-18T17:19:48.513Z,1002.83
2016-08-18T17:24:46.199Z,1002.90
2016-08-18T17:29:43.909Z,1002.85
2016-08-18T17:34:41.506Z,1002.94
2016-08-18T17:39:39.224Z,1003.01
2016-08-18T17:44:36.992Z,1002.92
2016-08-18T17:49:35.088Z,1002.94
2016-08-18T17:54:32.642Z,1002.99
2016-08-18T17:59:30.244Z,1002.99
2016-08-18T18:04:28.289Z,1003.04
2016-08-18T18:09:25.815Z,1003.10
2016-08-18T18:14:23.429Z,1003.10
2016-08-18T18:19:21.124Z,1003.21
2016-08-18T18:24:19.611Z,1003.12
2016-08-18T18:29:17.420Z,1003.23
2016-08-18T18:34:15.118Z,1003.27
2016-08-18T18:39:12.931Z,1003.30
2016-08-18T18:44:10.772Z,1003.31
2016-08-18T18:49:08.409Z,1003.30
2016-08-18T18:54:06.027Z,1003.34
2016-08-18T18:59:03.693Z,1003.33
2016-08-18T19:04:01.473Z,1003.36
2016-08-18T19:08:59.371Z,1003.37
2016-08-18T19:13:57.096Z,1003.46
2016-08-18T19:18:54.722Z,1003.55
2016-08-18T19:23:52.418Z,1003.55
2016-08-18T19:28:50.125Z,1003.57
2016-08-18T19:33:48.014Z,1003.55
2016-08-18T19:38:45.691Z,1003.59
2016-08-18T19:43:43.635Z,1003.69
2016-08-18T19:48:41.124Z,1003.66
2016-08-18T19:53:38.707Z,1003.61
2016-08-18T19:58:36.355Z,1003.72
2016-08-18T20:03:34.015Z,1003.73
2016-08-18T20:08:31.798Z,1003.70
2016-08-18T20:13:29.389Z,1003.78
2016-08-18T20:18:26.972Z,1003.73
2016-08-18T20:23:24.693Z,1003.81
2016-08-18T20:28:22.416Z,1003.80
2016-08-18T20:33:20.034Z,1003.81
2016-08-18T20:38:17.835Z,1003.81
2016-08-18T20:43:15.615Z,1003.82
2016-08-18T20:48:13.474Z,1003.88
2016-08-18T20:53:11.124Z,1003.95
2016-08-18T20:58:08.805Z,1004.01
2016-08-18T21:03:07.257Z,1003.99
2016-08-18T21:08:04.771Z,1004.03
2016-08-18T21:13:02.463Z,1004.04
2016-08-18T21:18:00.513Z,1004.02
2016-08-18T21:22:59.587Z,1004.07
2016-08-18T21:27:58.284Z,1004.13
2016-08-18T21:32:55.949Z,1004.09
2016-08-18T21:37:53.548Z,1004.18
2016-08-18T21:42:51.420Z,1004.14
2016-08-18T21:47:49.092Z,1004.22
2016-08-18T21:52:46.749Z,1004.24
2016-08-18T21:57:44.342Z,1004.28
2016-08-18T22:02:42.252Z,1004.26
2016-08-18T22:07:40.065Z,1004.28
2016-08-18T22:17:39.282Z,1004.36
2016-08-18T22:22:37.375Z,1004.24
2016-08-18T22:27:35.051Z,1004.23
2016-08-18T22:32:32.721Z,1004.31
2016-08-18T22:37:30.386Z,1004.35
2016-08-18T22:42:28.144Z,1004.36
2016-08-18T22:47:25.716Z,1004.31
2016-08-18T22:52:23.515Z,1004.28
2016-08-18T22:57:21.162Z,1004.30
2016-08-18T23:02:18.891Z,1004.26
2016-08-18T23:07:16.694Z,1004.27
2016-08-18T23:12:14.427Z,1004.26
2016-08-18T23:17:12.150Z,1004.27
2016-08-18T23:22:09.819Z,1004.27
2016-08-18T23:27:07.563Z,1004.23
2016-08-18T23:32:05.365Z,1004.17
2016-08-18T23:37:02.988Z,1004.24
2016-08-18T23:42:00.712Z,1004.16
2016-08-18T23:46:58.332Z,1004.11
2016-08-18T23:51:56.063Z,1004.19
2016-08-18T23:56:53.791Z,1004.15
